Main page
METAR-TAF:

METAR-TAF

Airports :

King Abdulaziz Air Base

Dhahran, Saudi Arabia

latitude: 26-16N, longitude: 050-09E, elevation: 26 m

Current weather observation

The report was made 21 minutes ago, at 23:00 UTC
Wind 2 kt from variable directions
Temperature 16°C
Humidity 68%
Pressure 1020 hPa
Visibility 10 km or more
no clouds below 1500 m and no cumulonimbus

METAR: OEDR 252300Z VRB02KT CAVOK 16/10 Q1020 NOSIG

Time: 02:21 (23:21 UTC)

Forecast

The report was made 8 hours and 21 minutes ago, at 15:00 UTC
Forecast valid from 25 at 18 UTC to 26 at 24 UTC
Wind 5 kt from the West/Northwest
Visibility 10 km or more
no clouds below 1500 m and no cumulonimbus
Temporary
from 26 at 01 UTC to 26 at 05 UTC
Visibility: 5000 m
haze

TAF: OEDR 251500Z 2518/2624 30005KT CAVOK TEMPO 2601/2605 5000 HZ NSC

Weather observations and forecasts of more than 4000 airports (METAR and TAF reports).

The available stations are represented by yellow and red dots on the map.

Hover mouse over dot to see the name of the station.

Then click to see weather observations and forecasts.

To change the map : click on the green buttons with a black cross to zoom in, on the green button with a dash to zoom out, or on the green arrows for adjacent maps.


METAR-TAF: